createdAt,value
2022-09-11T00:02:49.793Z,15.15
2022-09-11T00:07:49.697Z,15.17
2022-09-11T00:12:49.619Z,15.22
2022-09-11T00:17:49.560Z,15.23
2022-09-11T00:22:49.490Z,15.23
2022-09-11T00:27:49.431Z,15.22
2022-09-11T00:32:49.380Z,15.23
2022-09-11T00:37:49.306Z,15.26
2022-09-11T00:42:49.278Z,15.23
2022-09-11T00:47:49.180Z,15.22
2022-09-11T00:52:52.856Z,15.19
2022-09-11T00:57:49.047Z,15.15
2022-09-11T01:02:48.987Z,15.08
2022-09-11T01:07:48.934Z,15.10
2022-09-11T01:12:48.857Z,15.08
2022-09-11T01:17:48.796Z,15.12
2022-09-11T01:22:48.726Z,15.03
2022-09-11T01:27:48.666Z,15.01
2022-09-11T01:32:48.598Z,14.99
2022-09-11T01:37:48.549Z,14.97
2022-09-11T01:42:48.490Z,14.97
2022-09-11T01:47:48.421Z,15.03
2022-09-11T01:52:48.350Z,15.03
2022-09-11T01:57:48.290Z,15.05
2022-09-11T02:02:48.271Z,15.01
2022-09-11T02:07:48.172Z,15.05
2022-09-11T02:12:48.103Z,15.07
2022-09-11T02:17:48.043Z,15.11
2022-09-11T02:22:47.962Z,15.05
2022-09-11T02:27:47.913Z,15.07
2022-09-11T02:32:47.844Z,15.08
2022-09-11T02:37:47.798Z,15.11
2022-09-11T02:42:47.706Z,15.11
2022-09-11T02:47:47.658Z,15.10
2022-09-11T02:52:47.616Z,15.07
2022-09-11T02:57:47.529Z,15.04
2022-09-11T03:02:47.468Z,15.05
2022-09-11T03:07:47.408Z,15.04
2022-09-11T03:12:47.350Z,15.08
2022-09-11T03:17:47.278Z,15.03
2022-09-11T03:22:47.222Z,15.03
2022-09-11T03:27:47.171Z,15.08
2022-09-11T03:32:47.101Z,15.03
2022-09-11T03:37:47.033Z,14.99
2022-09-11T03:42:46.953Z,15.05
2022-09-11T03:47:46.913Z,15.08
2022-09-11T03:52:46.843Z,15.11
2022-09-11T03:57:46.785Z,15.08
2022-09-11T04:02:46.721Z,15.08
2022-09-11T04:07:46.646Z,15.08
2022-09-11T04:12:46.596Z,15.11
2022-09-11T04:17:46.535Z,15.11
2022-09-11T04:22:46.468Z,15.10
2022-09-11T04:27:46.415Z,15.11
2022-09-11T04:32:46.353Z,15.15
2022-09-11T04:37:46.285Z,15.08
2022-09-11T04:42:46.216Z,15.07
2022-09-11T04:47:46.158Z,15.11
2022-09-11T04:52:46.097Z,15.07
2022-09-11T04:57:46.032Z,15.11
2022-09-11T05:02:45.973Z,15.07
2022-09-11T05:07:45.911Z,15.14
2022-09-11T05:12:45.852Z,15.15
2022-09-11T05:17:45.781Z,15.17
2022-09-11T05:22:45.762Z,15.15
2022-09-11T05:27:45.663Z,15.15
2022-09-11T05:32:45.585Z,15.20
2022-09-11T05:37:45.541Z,15.20
2022-09-11T05:42:45.476Z,15.23
2022-09-11T05:47:45.433Z,15.19
2022-09-11T05:52:45.336Z,15.15
2022-09-11T05:57:45.287Z,15.27
2022-09-11T06:02:45.226Z,15.27
2022-09-11T06:07:45.166Z,15.25
2022-09-11T06:12:45.089Z,15.32
2022-09-11T06:17:45.209Z,15.36
2022-09-11T06:22:44.969Z,15.44
2022-09-11T06:27:44.909Z,15.43
2022-09-11T06:32:44.844Z,15.50
2022-09-11T06:37:44.782Z,15.59
2022-09-11T06:42:44.720Z,15.56
2022-09-11T06:47:44.655Z,15.59
2022-09-11T06:52:44.593Z,15.69
2022-09-11T06:57:44.524Z,15.70
2022-09-11T07:02:44.520Z,15.65
2022-09-11T07:07:44.394Z,15.65
2022-09-11T07:12:44.336Z,15.65
2022-09-11T07:17:44.279Z,15.70
2022-09-11T07:22:44.217Z,15.78
2022-09-11T07:27:44.168Z,15.77
2022-09-11T07:32:44.125Z,15.85
2022-09-11T07:37:47.714Z,15.91
2022-09-11T07:42:44.958Z,16.08
2022-09-11T07:47:43.889Z,16.29
2022-09-11T07:52:43.831Z,16.49
2022-09-11T07:57:43.787Z,16.61
2022-09-11T08:02:43.750Z,16.70
2022-09-11T08:07:43.702Z,16.65
2022-09-11T08:12:43.592Z,16.77
2022-09-11T08:17:43.532Z,16.90
2022-09-11T08:22:43.463Z,16.80
2022-09-11T08:27:43.412Z,16.95
2022-09-11T08:32:43.346Z,17.19
2022-09-11T08:37:43.296Z,17.45
2022-09-11T08:42:43.228Z,17.53
2022-09-11T08:47:43.156Z,17.41
2022-09-11T08:52:43.108Z,17.45
2022-09-11T08:57:43.073Z,17.47
2022-09-11T09:02:42.980Z,17.65
2022-09-11T09:07:42.910Z,17.79
2022-09-11T09:12:42.852Z,18.01
2022-09-11T09:17:42.790Z,18.08
2022-09-11T09:22:42.722Z,18.21
2022-09-11T09:27:42.652Z,18.27
2022-09-11T09:32:42.922Z,18.57
2022-09-11T09:37:42.535Z,18.48
2022-09-11T09:42:42.474Z,18.63
2022-09-11T09:47:42.414Z,18.75
2022-09-11T09:52:42.355Z,18.75
2022-09-11T09:57:42.287Z,18.71
2022-09-11T10:02:42.235Z,18.71
2022-09-11T10:07:42.158Z,18.71
2022-09-11T10:12:42.118Z,18.71
2022-09-11T10:17:42.039Z,18.67
2022-09-11T10:22:41.981Z,18.70
2022-09-11T10:27:41.920Z,18.78
2022-09-11T10:32:41.862Z,19.01
2022-09-11T10:37:41.794Z,19.44
2022-09-11T10:42:41.734Z,19.53
2022-09-11T10:47:41.675Z,19.47
2022-09-11T10:52:41.614Z,19.63
2022-09-11T10:57:41.554Z,19.74
2022-09-11T11:02:41.487Z,19.79
2022-09-11T11:07:41.426Z,19.74
2022-09-11T11:12:41.377Z,19.60
2022-09-11T11:17:41.291Z,19.79
2022-09-11T11:22:41.230Z,20.00
2022-09-11T11:27:41.172Z,20.08
2022-09-11T11:32:41.122Z,20.04
2022-09-11T11:37:41.044Z,19.86
2022-09-11T11:42:40.984Z,19.87
2022-09-11T11:47:40.944Z,19.79
2022-09-11T11:52:40.856Z,19.84
2022-09-11T11:57:40.795Z,20.19
2022-09-11T12:02:40.727Z,20.46
2022-09-11T12:07:40.679Z,20.42
2022-09-11T12:12:40.609Z,20.58
2022-09-11T12:17:40.539Z,20.61
2022-09-11T12:22:40.489Z,20.50
2022-09-11T12:27:40.461Z,20.53
2022-09-11T12:32:40.363Z,20.60
2022-09-11T12:37:40.389Z,20.68
2022-09-11T12:42:40.240Z,20.95
2022-09-11T12:47:40.175Z,20.98
2022-09-11T12:52:40.116Z,20.86
2022-09-11T12:57:40.075Z,20.85
2022-09-11T13:02:39.987Z,20.82
2022-09-11T13:07:39.927Z,21.10
2022-09-11T13:12:39.887Z,21.22
2022-09-11T13:17:39.800Z,21.73
2022-09-11T13:22:39.779Z,21.74
2022-09-11T13:27:39.676Z,21.56
2022-09-11T13:32:39.620Z,20.41
2022-09-11T13:37:39.553Z,19.13
2022-09-11T13:42:39.493Z,18.58
2022-09-11T13:47:39.434Z,18.27
2022-09-11T13:52:39.366Z,18.21
2022-09-11T13:57:39.306Z,18.27
2022-09-11T14:02:39.288Z,18.28
2022-09-11T14:07:39.177Z,18.42
2022-09-11T14:12:39.119Z,18.49
2022-09-11T14:17:39.062Z,18.63
2022-09-11T14:22:39.003Z,18.71
2022-09-11T14:27:38.960Z,18.88
2022-09-11T14:32:38.884Z,18.96
2022-09-11T14:37:38.813Z,18.97
2022-09-11T14:42:38.755Z,18.98
2022-09-11T14:47:38.741Z,19.01
2022-09-11T14:52:38.634Z,18.94
2022-09-11T14:57:38.565Z,18.97
2022-09-11T15:02:38.504Z,19.05
2022-09-11T15:07:38.449Z,19.07
2022-09-11T15:12:38.385Z,19.00
2022-09-11T15:17:38.308Z,18.98
2022-09-11T15:22:38.342Z,18.97
2022-09-11T15:27:38.189Z,18.89
2022-09-11T15:32:38.132Z,18.96
2022-09-11T15:37:38.070Z,18.94
2022-09-11T15:42:39.810Z,18.96
2022-09-11T15:47:37.954Z,18.98
2022-09-11T15:52:37.893Z,18.96
2022-09-11T15:57:37.824Z,19.07
2022-09-11T16:02:37.763Z,19.09
2022-09-11T16:07:37.805Z,19.12
2022-09-11T16:12:37.627Z,19.12
2022-09-11T16:17:37.568Z,19.16
2022-09-11T16:22:37.549Z,19.07
2022-09-11T16:27:37.442Z,19.08
2022-09-11T16:32:37.390Z,19.07
2022-09-11T16:37:37.310Z,19.01
2022-09-11T16:42:37.270Z,19.07
2022-09-11T16:47:37.201Z,19.07
2022-09-11T16:52:37.145Z,19.13
2022-09-11T16:57:37.066Z,19.09
2022-09-11T17:02:37.025Z,19.05
2022-09-11T17:07:36.934Z,18.93
2022-09-11T17:12:36.886Z,18.81
2022-09-11T17:17:36.818Z,18.71
2022-09-11T17:22:36.778Z,18.66
2022-09-11T17:27:36.699Z,18.51
2022-09-11T17:32:36.629Z,18.41
2022-09-11T17:37:36.570Z,18.17
2022-09-11T17:42:36.517Z,17.96
2022-09-11T17:47:36.452Z,17.96
2022-09-11T17:52:36.391Z,17.84
2022-09-11T17:57:36.325Z,17.76
2022-09-11T18:02:36.267Z,17.76
2022-09-11T18:07:36.197Z,17.78
2022-09-11T18:12:36.147Z,17.69
2022-09-11T18:17:36.072Z,17.65
2022-09-11T18:22:36.015Z,17.63
2022-09-11T18:27:35.959Z,17.52
2022-09-11T18:32:35.898Z,17.39
2022-09-11T18:37:35.821Z,17.28
2022-09-11T18:42:35.767Z,17.19
2022-09-11T18:47:35.699Z,17.07
2022-09-11T18:52:35.640Z,16.99
2022-09-11T18:57:40.723Z,17.01
2022-09-11T19:02:36.520Z,16.91
2022-09-11T19:07:35.435Z,16.77
2022-09-11T19:12:35.384Z,16.69
2022-09-11T19:17:35.352Z,16.62
2022-09-11T19:22:35.615Z,16.59
2022-09-11T19:27:35.178Z,16.52
2022-09-11T19:32:35.137Z,16.54
2022-09-11T19:37:35.067Z,16.47
2022-09-11T19:42:35.040Z,16.44
2022-09-11T19:47:34.927Z,16.39
2022-09-11T19:52:34.909Z,16.37
2022-09-11T19:57:34.814Z,16.33
2022-09-11T20:02:34.761Z,16.26
2022-09-11T20:07:34.690Z,16.22
2022-09-11T20:12:34.632Z,16.16
2022-09-11T20:17:34.573Z,16.18
2022-09-11T20:22:34.514Z,16.18
2022-09-11T20:27:34.444Z,16.24
2022-09-11T20:32:34.393Z,16.24
2022-09-11T20:37:34.325Z,16.28
2022-09-11T20:42:34.274Z,16.32
2022-09-11T20:47:34.207Z,16.37
2022-09-11T20:52:38.668Z,16.37
2022-09-11T20:57:35.085Z,16.33
2022-09-11T21:02:34.028Z,16.29
2022-09-11T21:07:33.965Z,16.24
2022-09-11T21:12:33.908Z,16.17
2022-09-11T21:17:33.841Z,16.24
2022-09-11T21:22:33.790Z,16.05
2022-09-11T21:27:33.711Z,16.10
2022-09-11T21:32:33.661Z,16.08
2022-09-11T21:37:33.591Z,16.00
2022-09-11T21:42:33.543Z,15.99
2022-09-11T21:47:33.475Z,15.91
2022-09-11T21:52:33.414Z,15.90
2022-09-11T21:57:33.386Z,15.87
2022-09-11T22:02:33.297Z,15.80
2022-09-11T22:07:33.226Z,15.70
2022-09-11T22:12:33.166Z,15.69
2022-09-11T22:17:33.106Z,15.58
2022-09-11T22:22:33.057Z,15.59
2022-09-11T22:27:32.968Z,15.60
2022-09-11T22:32:32.949Z,15.58
2022-09-11T22:37:32.909Z,15.56
2022-09-11T22:42:32.889Z,15.63
2022-09-11T22:47:32.738Z,15.68
2022-09-11T22:52:32.740Z,15.56
2022-09-11T22:57:32.613Z,15.54
2022-09-11T23:02:32.547Z,15.51
2022-09-11T23:07:32.474Z,15.35
2022-09-11T23:12:32.435Z,15.29
2022-09-11T23:17:32.354Z,15.25
2022-09-11T23:22:32.296Z,15.17
2022-09-11T23:27:32.225Z,15.22
2022-09-11T23:32:32.176Z,15.11
2022-09-11T23:37:32.096Z,15.11
2022-09-11T23:42:32.048Z,15.04
2022-09-11T23:47:31.957Z,14.99
2022-09-11T23:52:31.909Z,14.87
2022-09-11T23:57:31.839Z,14.83
